sensor_id;sensor_type;location;lat;lon;timestamp;temperature;humidity
47090;DHT22;32840;52.516;13.294;2022-09-16T00:01:53;14.80;99.90
47090;DHT22;32840;52.516;13.294;2022-09-16T00:04:39;14.80;99.90
47090;DHT22;32840;52.516;13.294;2022-09-16T00:07:24;14.80;99.90
47090;DHT22;32840;52.516;13.294;2022-09-16T00:10:09;14.80;99.90
47090;DHT22;32840;52.516;13.294;2022-09-16T00:12:54;14.80;99.90
47090;DHT22;32840;52.516;13.294;2022-09-16T00:15:47;14.80;99.90
47090;DHT22;32840;52.516;13.294;2022-09-16T00:18:34;14.80;99.90
47090;DHT22;32840;52.516;13.294;2022-09-16T00:21:18;14.70;99.90
47090;DHT22;32840;52.516;13.294;2022-09-16T00:24:04;14.70;99.90
47090;DHT22;32840;52.516;13.294;2022-09-16T00:26:48;14.70;99.90
47090;DHT22;32840;52.516;13.294;2022-09-16T00:29:34;14.60;99.90
47090;DHT22;32840;52.516;13.294;2022-09-16T00:32:18;14.60;99.90
47090;DHT22;32840;52.516;13.294;2022-09-16T00:35:03;14.60;99.90
47090;DHT22;32840;52.516;13.294;2022-09-16T00:37:48;14.60;99.90
47090;DHT22;32840;52.516;13.294;2022-09-16T00:40:33;14.60;99.90
47090;DHT22;32840;52.516;13.294;2022-09-16T00:43:18;14.60;99.90
47090;DHT22;32840;52.516;13.294;2022-09-16T00:46:04;14.60;99.90
47090;DHT22;32840;52.516;13.294;2022-09-16T00:48:49;14.50;99.90
47090;DHT22;32840;52.516;13.294;2022-09-16T00:51:33;14.50;99.90
47090;DHT22;32840;52.516;13.294;2022-09-16T00:54:18;14.50;99.90
47090;DHT22;32840;52.516;13.294;2022-09-16T00:57:06;14.40;99.90
47090;DHT22;32840;52.516;13.294;2022-09-16T00:59:53;14.50;99.90
47090;DHT22;32840;52.516;13.294;2022-09-16T01:02:41;14.50;99.90
47090;DHT22;32840;52.516;13.294;2022-09-16T01:05:26;14.40;99.90
47090;DHT22;32840;52.516;13.294;2022-09-16T01:08:11;14.40;99.90
47090;DHT22;32840;52.516;13.294;2022-09-16T01:10:56;14.40;99.90
47090;DHT22;32840;52.516;13.294;2022-09-16T01:13:42;14.40;99.90
47090;DHT22;32840;52.516;13.294;2022-09-16T01:16:33;14.40;99.90
47090;DHT22;32840;52.516;13.294;2022-09-16T01:29:13;14.30;99.90
47090;DHT22;32840;52.516;13.294;2022-09-16T01:32:27;14.30;99.90
47090;DHT22;32840;52.516;13.294;2022-09-16T01:42:03;14.20;99.90
47090;DHT22;32840;52.516;13.294;2022-09-16T01:51:20;14.10;99.90
47090;DHT22;32840;52.516;13.294;2022-09-16T01:54:07;14.10;99.90
47090;DHT22;32840;52.516;13.294;2022-09-16T01:57:14;14.10;99.90
47090;DHT22;32840;52.516;13.294;2022-09-16T02:00:11;14.10;99.90
47090;DHT22;32840;52.516;13.294;2022-09-16T02:03:02;14.10;99.90
47090;DHT22;32840;52.516;13.294;2022-09-16T02:05:56;14.10;99.90
47090;DHT22;32840;52.516;13.294;2022-09-16T02:08:49;14.10;99.90
47090;DHT22;32840;52.516;13.294;2022-09-16T02:11:37;14.00;99.90
47090;DHT22;32840;52.516;13.294;2022-09-16T02:14:26;14.00;99.90
47090;DHT22;32840;52.516;13.294;2022-09-16T02:17:15;14.00;99.90
47090;DHT22;32840;52.516;13.294;2022-09-16T02:20:09;14.00;99.90
47090;DHT22;32840;52.516;13.294;2022-09-16T02:22:59;14.00;99.90
47090;DHT22;32840;52.516;13.294;2022-09-16T02:25:48;14.00;99.90
47090;DHT22;32840;52.516;13.294;2022-09-16T02:28:37;13.90;99.90
47090;DHT22;32840;52.516;13.294;2022-09-16T02:31:31;14.00;99.90
47090;DHT22;32840;52.516;13.294;2022-09-16T02:34:21;13.90;99.90
47090;DHT22;32840;52.516;13.294;2022-09-16T02:37:14;13.90;99.90
47090;DHT22;32840;52.516;13.294;2022-09-16T02:40:03;13.90;99.90
47090;DHT22;32840;52.516;13.294;2022-09-16T02:42:49;13.90;99.90
47090;DHT22;32840;52.516;13.294;2022-09-16T02:49:11;13.90;99.90
47090;DHT22;32840;52.516;13.294;2022-09-16T02:52:21;13.90;99.90
47090;DHT22;32840;52.516;13.294;2022-09-16T02:55:21;13.90;99.90
47090;DHT22;32840;52.516;13.294;2022-09-16T02:58:09;13.80;99.90
47090;DHT22;32840;52.516;13.294;2022-09-16T03:00:55;13.80;99.90
47090;DHT22;32840;52.516;13.294;2022-09-16T03:03:41;13.80;99.90
47090;DHT22;32840;52.516;13.294;2022-09-16T03:06:27;13.80;99.90
47090;DHT22;32840;52.516;13.294;2022-09-16T03:09:14;13.80;99.90
47090;DHT22;32840;52.516;13.294;2022-09-16T03:15:10;13.80;99.90
47090;DHT22;32840;52.516;13.294;2022-09-16T03:24:15;13.80;99.90
47090;DHT22;32840;52.516;13.294;2022-09-16T03:27:14;13.70;99.90
47090;DHT22;32840;52.516;13.294;2022-09-16T03:30:08;13.70;99.90
47090;DHT22;32840;52.516;13.294;2022-09-16T03:32:59;13.70;99.90
47090;DHT22;32840;52.516;13.294;2022-09-16T03:35:47;13.70;99.90
47090;DHT22;32840;52.516;13.294;2022-09-16T03:38:37;13.70;99.90
47090;DHT22;32840;52.516;13.294;2022-09-16T03:41:22;13.60;99.90
47090;DHT22;32840;52.516;13.294;2022-09-16T03:44:07;13.60;99.90
47090;DHT22;32840;52.516;13.294;2022-09-16T03:46:52;13.60;99.90
47090;DHT22;32840;52.516;13.294;2022-09-16T03:49:37;13.60;99.90
47090;DHT22;32840;52.516;13.294;2022-09-16T03:52:22;13.50;99.90
47090;DHT22;32840;52.516;13.294;2022-09-16T03:55:07;13.50;99.90
47090;DHT22;32840;52.516;13.294;2022-09-16T03:57:54;13.60;99.90
47090;DHT22;32840;52.516;13.294;2022-09-16T04:00:38;13.50;99.90
47090;DHT22;32840;52.516;13.294;2022-09-16T04:03:23;13.50;99.90
47090;DHT22;32840;52.516;13.294;2022-09-16T04:06:08;13.50;99.90
47090;DHT22;32840;52.516;13.294;2022-09-16T04:08:53;13.50;99.90
47090;DHT22;32840;52.516;13.294;2022-09-16T04:11:39;13.50;99.90
47090;DHT22;32840;52.516;13.294;2022-09-16T04:14:23;13.40;99.90
47090;DHT22;32840;52.516;13.294;2022-09-16T04:17:08;13.50;99.90
47090;DHT22;32840;52.516;13.294;2022-09-16T04:19:53;13.40;99.90
47090;DHT22;32840;52.516;13.294;2022-09-16T04:22:38;13.40;99.90
47090;DHT22;32840;52.516;13.294;2022-09-16T04:25:23;13.40;99.90
47090;DHT22;32840;52.516;13.294;2022-09-16T04:28:07;13.40;99.90
47090;DHT22;32840;52.516;13.294;2022-09-16T04:30:52;13.40;99.90
47090;DHT22;32840;52.516;13.294;2022-09-16T04:33:38;13.30;99.90
47090;DHT22;32840;52.516;13.294;2022-09-16T04:36:23;13.30;99.90
47090;DHT22;32840;52.516;13.294;2022-09-16T04:39:08;13.30;99.90
47090;DHT22;32840;52.516;13.294;2022-09-16T04:41:53;13.30;99.90
47090;DHT22;32840;52.516;13.294;2022-09-16T04:44:38;13.30;99.90
47090;DHT22;32840;52.516;13.294;2022-09-16T04:47:23;13.30;99.90
47090;DHT22;32840;52.516;13.294;2022-09-16T04:50:08;13.30;99.90
47090;DHT22;32840;52.516;13.294;2022-09-16T04:52:54;13.20;99.90
47090;DHT22;32840;52.516;13.294;2022-09-16T04:55:39;13.20;99.90
47090;DHT22;32840;52.516;13.294;2022-09-16T04:58:24;13.20;99.90
47090;DHT22;32840;52.516;13.294;2022-09-16T05:01:11;13.20;99.90
47090;DHT22;32840;52.516;13.294;2022-09-16T05:03:59;13.20;99.90
47090;DHT22;32840;52.516;13.294;2022-09-16T05:06:44;13.20;99.90
47090;DHT22;32840;52.516;13.294;2022-09-16T05:09:29;13.20;99.90
47090;DHT22;32840;52.516;13.294;2022-09-16T05:12:14;13.20;99.90
47090;DHT22;32840;52.516;13.294;2022-09-16T05:14:59;13.20;99.90
47090;DHT22;32840;52.516;13.294;2022-09-16T05:17:44;13.20;99.90
47090;DHT22;32840;52.516;13.294;2022-09-16T05:20:29;13.20;99.90
47090;DHT22;32840;52.516;13.294;2022-09-16T05:23:13;13.20;99.90
47090;DHT22;32840;52.516;13.294;2022-09-16T05:26:07;13.30;99.90
47090;DHT22;32840;52.516;13.294;2022-09-16T05:28:52;13.30;99.90
47090;DHT22;32840;52.516;13.294;2022-09-16T05:31:39;13.30;99.90
47090;DHT22;32840;52.516;13.294;2022-09-16T05:34:24;13.30;99.90
47090;DHT22;32840;52.516;13.294;2022-09-16T05:37:12;13.40;99.90
47090;DHT22;32840;52.516;13.294;2022-09-16T05:39:56;13.30;99.90
47090;DHT22;32840;52.516;13.294;2022-09-16T05:42:41;13.30;99.90
47090;DHT22;32840;52.516;13.294;2022-09-16T05:45:26;13.30;99.90
47090;DHT22;32840;52.516;13.294;2022-09-16T05:48:11;13.30;99.90
47090;DHT22;32840;52.516;13.294;2022-09-16T05:51:02;13.30;99.90
47090;DHT22;32840;52.516;13.294;2022-09-16T05:53:48;13.30;99.90
47090;DHT22;32840;52.516;13.294;2022-09-16T05:56:34;13.30;99.90
47090;DHT22;32840;52.516;13.294;2022-09-16T05:59:19;13.30;99.90
47090;DHT22;32840;52.516;13.294;2022-09-16T06:02:03;13.40;99.90
47090;DHT22;32840;52.516;13.294;2022-09-16T06:04:48;13.30;99.90
47090;DHT22;32840;52.516;13.294;2022-09-16T06:07:33;13.40;99.90
47090;DHT22;32840;52.516;13.294;2022-09-16T06:10:18;13.50;99.90
47090;DHT22;32840;52.516;13.294;2022-09-16T06:13:03;13.50;99.90
47090;DHT22;32840;52.516;13.294;2022-09-16T06:15:49;13.60;99.90
47090;DHT22;32840;52.516;13.294;2022-09-16T06:18:35;13.60;99.90
47090;DHT22;32840;52.516;13.294;2022-09-16T06:21:21;13.70;99.90
47090;DHT22;32840;52.516;13.294;2022-09-16T06:24:07;13.80;99.90
47090;DHT22;32840;52.516;13.294;2022-09-16T06:26:52;13.80;99.90
47090;DHT22;32840;52.516;13.294;2022-09-16T06:29:37;13.80;99.90
47090;DHT22;32840;52.516;13.294;2022-09-16T06:32:22;13.80;99.90
47090;DHT22;32840;52.516;13.294;2022-09-16T06:35:07;13.70;99.90
47090;DHT22;32840;52.516;13.294;2022-09-16T06:37:53;13.70;99.90
47090;DHT22;32840;52.516;13.294;2022-09-16T06:40:37;13.70;99.90
47090;DHT22;32840;52.516;13.294;2022-09-16T06:43:22;13.90;99.90
47090;DHT22;32840;52.516;13.294;2022-09-16T06:46:09;13.90;99.90
47090;DHT22;32840;52.516;13.294;2022-09-16T06:48:59;14.00;99.90
47090;DHT22;32840;52.516;13.294;2022-09-16T06:51:44;14.00;99.90
47090;DHT22;32840;52.516;13.294;2022-09-16T06:54:29;14.00;99.90
47090;DHT22;32840;52.516;13.294;2022-09-16T06:57:14;14.10;99.90
47090;DHT22;32840;52.516;13.294;2022-09-16T06:59:58;14.10;99.90
47090;DHT22;32840;52.516;13.294;2022-09-16T07:02:43;14.20;99.90
47090;DHT22;32840;52.516;13.294;2022-09-16T07:05:28;14.30;99.90
47090;DHT22;32840;52.516;13.294;2022-09-16T07:08:13;14.40;99.90
47090;DHT22;32840;52.516;13.294;2022-09-16T07:11:00;14.50;99.90
47090;DHT22;32840;52.516;13.294;2022-09-16T07:13:46;14.50;99.90
47090;DHT22;32840;52.516;13.294;2022-09-16T07:16:31;14.50;99.90
47090;DHT22;32840;52.516;13.294;2022-09-16T07:19:16;14.50;99.90
47090;DHT22;32840;52.516;13.294;2022-09-16T07:22:01;14.50;99.90
47090;DHT22;32840;52.516;13.294;2022-09-16T07:24:46;14.50;99.90
47090;DHT22;32840;52.516;13.294;2022-09-16T07:27:31;14.50;99.90
47090;DHT22;32840;52.516;13.294;2022-09-16T07:30:16;14.50;99.90
47090;DHT22;32840;52.516;13.294;2022-09-16T07:33:01;14.50;99.90
47090;DHT22;32840;52.516;13.294;2022-09-16T07:35:45;14.40;99.90
47090;DHT22;32840;52.516;13.294;2022-09-16T07:38:31;14.40;99.90
47090;DHT22;32840;52.516;13.294;2022-09-16T07:41:21;14.50;99.90
47090;DHT22;32840;52.516;13.294;2022-09-16T07:44:09;14.50;99.90
47090;DHT22;32840;52.516;13.294;2022-09-16T07:46:54;14.50;99.90
47090;DHT22;32840;52.516;13.294;2022-09-16T07:49:39;14.60;99.90
47090;DHT22;32840;52.516;13.294;2022-09-16T07:52:25;14.80;99.90
47090;DHT22;32840;52.516;13.294;2022-09-16T07:55:12;15.00;99.90
47090;DHT22;32840;52.516;13.294;2022-09-16T07:58:00;15.10;99.90
47090;DHT22;32840;52.516;13.294;2022-09-16T08:00:46;15.20;99.90
47090;DHT22;32840;52.516;13.294;2022-09-16T08:03:35;15.20;99.90
47090;DHT22;32840;52.516;13.294;2022-09-16T08:06:24;15.40;99.90
47090;DHT22;32840;52.516;13.294;2022-09-16T08:09:09;15.50;99.90
47090;DHT22;32840;52.516;13.294;2022-09-16T08:11:54;15.60;99.90
47090;DHT22;32840;52.516;13.294;2022-09-16T08:14:39;15.70;99.90
47090;DHT22;32840;52.516;13.294;2022-09-16T08:17:24;15.80;99.90
47090;DHT22;32840;52.516;13.294;2022-09-16T08:20:09;15.80;99.90
47090;DHT22;32840;52.516;13.294;2022-09-16T08:22:54;15.90;99.90
47090;DHT22;32840;52.516;13.294;2022-09-16T08:25:39;15.90;99.90
47090;DHT22;32840;52.516;13.294;2022-09-16T08:28:27;15.90;99.90
47090;DHT22;32840;52.516;13.294;2022-09-16T08:31:12;15.90;99.90
47090;DHT22;32840;52.516;13.294;2022-09-16T08:33:57;15.90;99.90
47090;DHT22;32840;52.516;13.294;2022-09-16T08:36:42;15.90;99.90
47090;DHT22;32840;52.516;13.294;2022-09-16T08:39:27;16.00;99.90
47090;DHT22;32840;52.516;13.294;2022-09-16T08:48:33;16.70;99.90
47090;DHT22;32840;52.516;13.294;2022-09-16T08:51:23;16.80;99.90
47090;DHT22;32840;52.516;13.294;2022-09-16T08:54:14;16.90;99.90
47090;DHT22;32840;52.516;13.294;2022-09-16T08:57:03;17.10;99.90
47090;DHT22;32840;52.516;13.294;2022-09-16T08:59:53;17.00;99.90
47090;DHT22;32840;52.516;13.294;2022-09-16T09:02:45;17.10;99.90
47090;DHT22;32840;52.516;13.294;2022-09-16T09:05:50;17.20;99.90
47090;DHT22;32840;52.516;13.294;2022-09-16T09:11:54;17.50;99.90
47090;DHT22;32840;52.516;13.294;2022-09-16T09:18:02;17.40;99.90
47090;DHT22;32840;52.516;13.294;2022-09-16T09:27:03;17.30;99.90
47090;DHT22;32840;52.516;13.294;2022-09-16T09:30:04;17.20;99.90
47090;DHT22;32840;52.516;13.294;2022-09-16T09:36:24;17.60;99.90
47090;DHT22;32840;52.516;13.294;2022-09-16T09:42:15;18.10;99.90
47090;DHT22;32840;52.516;13.294;2022-09-16T09:45:13;18.40;99.90
47090;DHT22;32840;52.516;13.294;2022-09-16T09:48:18;18.40;99.20
47090;DHT22;32840;52.516;13.294;2022-09-16T09:51:18;18.30;98.90
47090;DHT22;32840;52.516;13.294;2022-09-16T09:54:21;18.20;96.90
47090;DHT22;32840;52.516;13.294;2022-09-16T09:57:33;18.00;94.00
47090;DHT22;32840;52.516;13.294;2022-09-16T10:00:21;17.90;95.10
47090;DHT22;32840;52.516;13.294;2022-09-16T10:03:16;17.80;95.50
47090;DHT22;32840;52.516;13.294;2022-09-16T10:06:02;17.80;95.60
47090;DHT22;32840;52.516;13.294;2022-09-16T10:08:50;17.90;94.10
47090;DHT22;32840;52.516;13.294;2022-09-16T10:11:48;17.90;94.00
47090;DHT22;32840;52.516;13.294;2022-09-16T10:14:36;18.00;95.40
47090;DHT22;32840;52.516;13.294;2022-09-16T10:17:21;18.10;94.80
47090;DHT22;32840;52.516;13.294;2022-09-16T10:20:28;18.10;94.60
47090;DHT22;32840;52.516;13.294;2022-09-16T10:23:18;18.10;93.60
47090;DHT22;32840;52.516;13.294;2022-09-16T10:28:58;18.20;91.30
47090;DHT22;32840;52.516;13.294;2022-09-16T10:31:44;18.20;92.00
47090;DHT22;32840;52.516;13.294;2022-09-16T10:34:35;18.10;92.10
47090;DHT22;32840;52.516;13.294;2022-09-16T10:37:22;18.20;92.70
47090;DHT22;32840;52.516;13.294;2022-09-16T10:40:15;18.30;93.30
47090;DHT22;32840;52.516;13.294;2022-09-16T10:43:05;18.30;91.30
47090;DHT22;32840;52.516;13.294;2022-09-16T10:45:57;18.20;90.70
47090;DHT22;32840;52.516;13.294;2022-09-16T10:48:42;18.00;89.20
47090;DHT22;32840;52.516;13.294;2022-09-16T10:51:29;18.00;90.50
47090;DHT22;32840;52.516;13.294;2022-09-16T10:54:26;17.90;91.20
47090;DHT22;32840;52.516;13.294;2022-09-16T10:57:29;17.90;93.10
47090;DHT22;32840;52.516;13.294;2022-09-16T11:00:17;18.00;91.50
47090;DHT22;32840;52.516;13.294;2022-09-16T11:12:35;18.20;90.90
47090;DHT22;32840;52.516;13.294;2022-09-16T11:15:43;18.20;88.80
47090;DHT22;32840;52.516;13.294;2022-09-16T11:18:38;18.20;86.50
47090;DHT22;32840;52.516;13.294;2022-09-16T11:21:37;18.30;86.20
47090;DHT22;32840;52.516;13.294;2022-09-16T11:24:34;18.20;84.90
47090;DHT22;32840;52.516;13.294;2022-09-16T11:27:56;18.10;84.10
47090;DHT22;32840;52.516;13.294;2022-09-16T11:30:58;18.00;83.70
47090;DHT22;32840;52.516;13.294;2022-09-16T11:37:16;18.00;85.50
47090;DHT22;32840;52.516;13.294;2022-09-16T11:40:18;17.90;83.30
47090;DHT22;32840;52.516;13.294;2022-09-16T11:43:26;17.90;85.70
47090;DHT22;32840;52.516;13.294;2022-09-16T11:46:30;17.90;82.20
47090;DHT22;32840;52.516;13.294;2022-09-16T11:52:41;17.80;84.90
47090;DHT22;32840;52.516;13.294;2022-09-16T11:56:00;18.00;84.20
47090;DHT22;32840;52.516;13.294;2022-09-16T11:58:52;17.90;86.10
47090;DHT22;32840;52.516;13.294;2022-09-16T12:01:47;17.80;86.00
47090;DHT22;32840;52.516;13.294;2022-09-16T12:04:39;17.80;82.50
47090;DHT22;32840;52.516;13.294;2022-09-16T12:10:46;17.90;84.00
47090;DHT22;32840;52.516;13.294;2022-09-16T12:13:55;17.90;86.00
47090;DHT22;32840;52.516;13.294;2022-09-16T12:17:02;18.00;82.30
47090;DHT22;32840;52.516;13.294;2022-09-16T12:19:57;18.00;81.30
47090;DHT22;32840;52.516;13.294;2022-09-16T12:22:54;18.20;79.40
47090;DHT22;32840;52.516;13.294;2022-09-16T12:26:20;18.30;79.00
47090;DHT22;32840;52.516;13.294;2022-09-16T12:32:17;18.40;76.80
47090;DHT22;32840;52.516;13.294;2022-09-16T12:35:15;18.40;76.10
47090;DHT22;32840;52.516;13.294;2022-09-16T12:38:00;18.30;77.00
47090;DHT22;32840;52.516;13.294;2022-09-16T12:44:24;18.20;74.50
47090;DHT22;32840;52.516;13.294;2022-09-16T12:47:43;18.20;75.30
47090;DHT22;32840;52.516;13.294;2022-09-16T12:51:04;18.30;78.20
47090;DHT22;32840;52.516;13.294;2022-09-16T12:54:51;18.40;77.20
47090;DHT22;32840;52.516;13.294;2022-09-16T13:03:16;18.50;74.70
47090;DHT22;32840;52.516;13.294;2022-09-16T13:06:06;18.50;74.20
47090;DHT22;32840;52.516;13.294;2022-09-16T13:09:16;18.50;77.10
47090;DHT22;32840;52.516;13.294;2022-09-16T13:12:06;18.40;72.80
47090;DHT22;32840;52.516;13.294;2022-09-16T13:15:03;18.50;75.20
47090;DHT22;32840;52.516;13.294;2022-09-16T13:17:48;18.60;78.30
47090;DHT22;32840;52.516;13.294;2022-09-16T13:20:40;18.60;75.50
47090;DHT22;32840;52.516;13.294;2022-09-16T13:23:30;18.60;73.90
47090;DHT22;32840;52.516;13.294;2022-09-16T13:26:18;18.60;70.30
47090;DHT22;32840;52.516;13.294;2022-09-16T13:29:03;18.60;72.00
47090;DHT22;32840;52.516;13.294;2022-09-16T13:32:27;18.60;74.60
47090;DHT22;32840;52.516;13.294;2022-09-16T13:38:34;18.60;70.80
47090;DHT22;32840;52.516;13.294;2022-09-16T13:41:10;18.70;70.10
47090;DHT22;32840;52.516;13.294;2022-09-16T13:43:56;18.80;70.40
47090;DHT22;32840;52.516;13.294;2022-09-16T13:46:40;18.80;71.10
47090;DHT22;32840;52.516;13.294;2022-09-16T13:49:26;18.70;70.00
47090;DHT22;32840;52.516;13.294;2022-09-16T13:52:17;18.60;69.40
47090;DHT22;32840;52.516;13.294;2022-09-16T13:55:05;18.60;70.90
47090;DHT22;32840;52.516;13.294;2022-09-16T13:58:14;18.50;69.70
47090;DHT22;32840;52.516;13.294;2022-09-16T14:07:10;18.50;69.70
47090;DHT22;32840;52.516;13.294;2022-09-16T14:10:08;18.50;71.30
47090;DHT22;32840;52.516;13.294;2022-09-16T14:13:10;18.50;70.80
47090;DHT22;32840;52.516;13.294;2022-09-16T14:15:57;18.60;68.90
47090;DHT22;32840;52.516;13.294;2022-09-16T14:19:13;18.80;70.90
47090;DHT22;32840;52.516;13.294;2022-09-16T14:24:56;18.80;64.50
47090;DHT22;32840;52.516;13.294;2022-09-16T14:27:41;18.80;62.80
47090;DHT22;32840;52.516;13.294;2022-09-16T14:30:27;18.80;65.20
47090;DHT22;32840;52.516;13.294;2022-09-16T14:33:12;18.80;62.50
47090;DHT22;32840;52.516;13.294;2022-09-16T14:35:58;18.90;60.70
47090;DHT22;32840;52.516;13.294;2022-09-16T14:38:47;18.90;59.80
47090;DHT22;32840;52.516;13.294;2022-09-16T14:42:04;18.90;59.20
47090;DHT22;32840;52.516;13.294;2022-09-16T14:44:53;18.90;60.40
47090;DHT22;32840;52.516;13.294;2022-09-16T14:47:39;18.80;61.80
47090;DHT22;32840;52.516;13.294;2022-09-16T14:50:24;18.70;61.60
47090;DHT22;32840;52.516;13.294;2022-09-16T14:53:27;18.70;62.70
47090;DHT22;32840;52.516;13.294;2022-09-16T14:56:18;18.70;60.30
47090;DHT22;32840;52.516;13.294;2022-09-16T14:59:03;18.60;61.20
47090;DHT22;32840;52.516;13.294;2022-09-16T15:01:49;18.60;61.60
47090;DHT22;32840;52.516;13.294;2022-09-16T15:04:35;18.60;64.10
47090;DHT22;32840;52.516;13.294;2022-09-16T15:07:33;18.60;62.90
47090;DHT22;32840;52.516;13.294;2022-09-16T15:10:26;18.60;62.90
47090;DHT22;32840;52.516;13.294;2022-09-16T15:13:13;18.60;62.50
47090;DHT22;32840;52.516;13.294;2022-09-16T15:16:19;18.50;63.20
47090;DHT22;32840;52.516;13.294;2022-09-16T15:19:05;18.50;63.50
47090;DHT22;32840;52.516;13.294;2022-09-16T15:21:50;18.60;64.20
47090;DHT22;32840;52.516;13.294;2022-09-16T15:24:39;18.60;65.20
47090;DHT22;32840;52.516;13.294;2022-09-16T15:27:27;18.60;63.20
47090;DHT22;32840;52.516;13.294;2022-09-16T15:30:22;18.50;65.50
47090;DHT22;32840;52.516;13.294;2022-09-16T15:33:32;18.50;66.70
47090;DHT22;32840;52.516;13.294;2022-09-16T15:36:39;18.50;64.90
47090;DHT22;32840;52.516;13.294;2022-09-16T15:39:30;18.50;65.90
47090;DHT22;32840;52.516;13.294;2022-09-16T15:42:19;18.50;67.00
47090;DHT22;32840;52.516;13.294;2022-09-16T15:45:16;18.50;68.90
47090;DHT22;32840;52.516;13.294;2022-09-16T15:48:08;18.40;67.40
47090;DHT22;32840;52.516;13.294;2022-09-16T15:51:29;18.40;64.30
47090;DHT22;32840;52.516;13.294;2022-09-16T15:54:35;18.40;63.90
47090;DHT22;32840;52.516;13.294;2022-09-16T15:57:24;18.30;63.30
47090;DHT22;32840;52.516;13.294;2022-09-16T16:00:11;18.20;63.70
47090;DHT22;32840;52.516;13.294;2022-09-16T16:03:00;18.10;65.10
47090;DHT22;32840;52.516;13.294;2022-09-16T16:05:53;18.00;64.80
47090;DHT22;32840;52.516;13.294;2022-09-16T16:08:46;18.00;64.70
47090;DHT22;32840;52.516;13.294;2022-09-16T16:11:32;17.90;65.80
47090;DHT22;32840;52.516;13.294;2022-09-16T16:14:17;17.90;67.50
47090;DHT22;32840;52.516;13.294;2022-09-16T16:19:51;17.90;67.10
47090;DHT22;32840;52.516;13.294;2022-09-16T16:22:36;17.90;67.40
47090;DHT22;32840;52.516;13.294;2022-09-16T16:25:21;17.90;67.60
47090;DHT22;32840;52.516;13.294;2022-09-16T16:28:05;17.80;67.90
47090;DHT22;32840;52.516;13.294;2022-09-16T16:30:50;17.80;69.30
47090;DHT22;32840;52.516;13.294;2022-09-16T16:33:35;17.70;67.70
47090;DHT22;32840;52.516;13.294;2022-09-16T16:36:20;17.70;67.20
47090;DHT22;32840;52.516;13.294;2022-09-16T16:39:05;17.70;68.80
47090;DHT22;32840;52.516;13.294;2022-09-16T16:41:51;17.70;67.70
47090;DHT22;32840;52.516;13.294;2022-09-16T16:44:37;17.70;67.60
47090;DHT22;32840;52.516;13.294;2022-09-16T16:47:23;17.70;67.30
47090;DHT22;32840;52.516;13.294;2022-09-16T16:50:09;17.70;68.30
47090;DHT22;32840;52.516;13.294;2022-09-16T16:52:53;17.60;71.60
47090;DHT22;32840;52.516;13.294;2022-09-16T16:55:38;17.60;72.70
47090;DHT22;32840;52.516;13.294;2022-09-16T16:58:23;17.50;70.50
47090;DHT22;32840;52.516;13.294;2022-09-16T17:01:11;17.40;71.20
47090;DHT22;32840;52.516;13.294;2022-09-16T17:03:56;17.30;69.70
47090;DHT22;32840;52.516;13.294;2022-09-16T17:06:43;17.30;70.20
47090;DHT22;32840;52.516;13.294;2022-09-16T17:09:28;17.20;73.30
47090;DHT22;32840;52.516;13.294;2022-09-16T17:12:13;17.10;74.90
47090;DHT22;32840;52.516;13.294;2022-09-16T17:14:58;17.10;75.00
47090;DHT22;32840;52.516;13.294;2022-09-16T17:17:43;17.10;73.30
47090;DHT22;32840;52.516;13.294;2022-09-16T17:20:28;17.00;73.50
47090;DHT22;32840;52.516;13.294;2022-09-16T17:23:13;17.00;76.60
47090;DHT22;32840;52.516;13.294;2022-09-16T17:25:58;17.00;74.60
47090;DHT22;32840;52.516;13.294;2022-09-16T17:28:45;16.90;76.90
47090;DHT22;32840;52.516;13.294;2022-09-16T17:31:32;16.90;75.00
47090;DHT22;32840;52.516;13.294;2022-09-16T17:34:17;16.80;78.10
47090;DHT22;32840;52.516;13.294;2022-09-16T17:37:02;16.80;74.20
47090;DHT22;32840;52.516;13.294;2022-09-16T17:39:47;16.80;77.50
47090;DHT22;32840;52.516;13.294;2022-09-16T17:42:33;16.80;79.10
47090;DHT22;32840;52.516;13.294;2022-09-16T17:45:18;16.70;79.80
47090;DHT22;32840;52.516;13.294;2022-09-16T17:48:03;16.70;78.40
47090;DHT22;32840;52.516;13.294;2022-09-16T17:50:52;16.70;81.30
47090;DHT22;32840;52.516;13.294;2022-09-16T17:53:37;16.70;79.50
47090;DHT22;32840;52.516;13.294;2022-09-16T17:56:22;16.60;80.70
47090;DHT22;32840;52.516;13.294;2022-09-16T17:59:07;16.60;81.60
47090;DHT22;32840;52.516;13.294;2022-09-16T18:01:52;16.60;80.50
47090;DHT22;32840;52.516;13.294;2022-09-16T18:04:37;16.50;83.00
47090;DHT22;32840;52.516;13.294;2022-09-16T18:07:24;16.50;81.20
47090;DHT22;32840;52.516;13.294;2022-09-16T18:10:08;16.50;80.50
47090;DHT22;32840;52.516;13.294;2022-09-16T18:12:54;16.50;83.10
47090;DHT22;32840;52.516;13.294;2022-09-16T18:15:38;16.50;80.10
47090;DHT22;32840;52.516;13.294;2022-09-16T18:18:23;16.50;80.20
47090;DHT22;32840;52.516;13.294;2022-09-16T18:21:11;16.50;86.10
47090;DHT22;32840;52.516;13.294;2022-09-16T18:24:00;16.40;84.50
47090;DHT22;32840;52.516;13.294;2022-09-16T18:26:45;16.40;84.30
47090;DHT22;32840;52.516;13.294;2022-09-16T18:29:31;16.40;85.90
47090;DHT22;32840;52.516;13.294;2022-09-16T18:32:16;16.40;84.10
47090;DHT22;32840;52.516;13.294;2022-09-16T18:35:03;16.40;86.70
47090;DHT22;32840;52.516;13.294;2022-09-16T18:37:48;16.30;85.60
47090;DHT22;32840;52.516;13.294;2022-09-16T18:40:33;16.30;86.00
47090;DHT22;32840;52.516;13.294;2022-09-16T18:43:21;16.30;85.60
47090;DHT22;32840;52.516;13.294;2022-09-16T18:46:24;16.20;84.90
47090;DHT22;32840;52.516;13.294;2022-09-16T18:49:11;16.20;88.50
47090;DHT22;32840;52.516;13.294;2022-09-16T18:51:56;16.20;88.10
47090;DHT22;32840;52.516;13.294;2022-09-16T18:54:41;16.20;86.50
47090;DHT22;32840;52.516;13.294;2022-09-16T18:57:30;16.30;86.10
47090;DHT22;32840;52.516;13.294;2022-09-16T19:00:15;16.30;85.60
47090;DHT22;32840;52.516;13.294;2022-09-16T19:03:01;16.30;87.30
47090;DHT22;32840;52.516;13.294;2022-09-16T19:05:56;16.30;87.70
47090;DHT22;32840;52.516;13.294;2022-09-16T19:08:40;16.40;88.60
47090;DHT22;32840;52.516;13.294;2022-09-16T19:11:27;16.40;86.10
47090;DHT22;32840;52.516;13.294;2022-09-16T19:14:12;16.40;85.50
47090;DHT22;32840;52.516;13.294;2022-09-16T19:16:58;16.40;86.40
47090;DHT22;32840;52.516;13.294;2022-09-16T19:19:43;16.40;86.90
47090;DHT22;32840;52.516;13.294;2022-09-16T19:22:28;16.30;88.80
47090;DHT22;32840;52.516;13.294;2022-09-16T19:25:13;16.30;89.60